sensor_id;sensor_type;location;lat;lon;timestamp;pressure;altitude;pressure_sealevel;temperature
77728;BMP280;68312;53.502;10.030;2023-09-19T00:00:45;100469.84;;;16.97
77728;BMP280;68312;53.502;10.030;2023-09-19T00:03:15;100474.41;;;17.00
77728;BMP280;68312;53.502;10.030;2023-09-19T00:05:40;100475.59;;;17.06
77728;BMP280;68312;53.502;10.030;2023-09-19T00:08:09;100460.47;;;17.10
77728;BMP280;68312;53.502;10.030;2023-09-19T00:10:35;100453.28;;;17.11
77728;BMP280;68312;53.502;10.030;2023-09-19T00:13:03;100471.97;;;17.17
77728;BMP280;68312;53.502;10.030;2023-09-19T00:15:38;100471.16;;;17.17
77728;BMP280;68312;53.502;10.030;2023-09-19T00:18:05;100469.31;;;17.17
77728;BMP280;68312;53.502;10.030;2023-09-19T00:20:32;100470.75;;;17.15
77728;BMP280;68312;53.502;10.030;2023-09-19T00:23:00;100479.47;;;17.12
77728;BMP280;68312;53.502;10.030;2023-09-19T00:25:33;100483.66;;;17.13
77728;BMP280;68312;53.502;10.030;2023-09-19T00:28:00;100479.81;;;17.11
77728;BMP280;68312;53.502;10.030;2023-09-19T00:30:26;100477.16;;;17.07
77728;BMP280;68312;53.502;10.030;2023-09-19T00:32:52;100479.03;;;17.03
77728;BMP280;68312;53.502;10.030;2023-09-19T00:35:21;100481.22;;;16.98
77728;BMP280;68312;53.502;10.030;2023-09-19T00:37:50;100467.97;;;16.98
77728;BMP280;68312;53.502;10.030;2023-09-19T00:40:16;100484.97;;;16.93
77728;BMP280;68312;53.502;10.030;2023-09-19T00:42:43;100487.97;;;16.88
77728;BMP280;68312;53.502;10.030;2023-09-19T00:45:11;100488.28;;;16.84
77728;BMP280;68312;53.502;10.030;2023-09-19T00:47:42;100487.16;;;16.85
77728;BMP280;68312;53.502;10.030;2023-09-19T00:50:11;100473.53;;;16.86
77728;BMP280;68312;53.502;10.030;2023-09-19T00:52:40;100478.78;;;16.83
77728;BMP280;68312;53.502;10.030;2023-09-19T00:55:11;100478.44;;;16.84
77728;BMP280;68312;53.502;10.030;2023-09-19T00:57:38;100483.72;;;16.81
77728;BMP280;68312;53.502;10.030;2023-09-19T01:00:06;100490.91;;;16.80
77728;BMP280;68312;53.502;10.030;2023-09-19T01:02:34;100484.03;;;16.76
77728;BMP280;68312;53.502;10.030;2023-09-19T01:05:01;100485.91;;;16.75
77728;BMP280;68312;53.502;10.030;2023-09-19T01:07:27;100501.91;;;16.82
77728;BMP280;68312;53.502;10.030;2023-09-19T01:09:56;100494.31;;;16.81
77728;BMP280;68312;53.502;10.030;2023-09-19T01:12:30;100489.34;;;16.76
77728;BMP280;68312;53.502;10.030;2023-09-19T01:15:28;100496.53;;;16.75
77728;BMP280;68312;53.502;10.030;2023-09-19T01:18:21;100495.06;;;16.81
77728;BMP280;68312;53.502;10.030;2023-09-19T01:21:08;100504.94;;;16.81
77728;BMP280;68312;53.502;10.030;2023-09-19T01:32:16;100510.44;;;17.01
77728;BMP280;68312;53.502;10.030;2023-09-19T01:34:51;100513.91;;;17.05
77728;BMP280;68312;53.502;10.030;2023-09-19T01:37:22;100507.88;;;17.08
77728;BMP280;68312;53.502;10.030;2023-09-19T01:39:57;100515.06;;;17.08
77728;BMP280;68312;53.502;10.030;2023-09-19T01:42:37;100516.97;;;17.07
77728;BMP280;68312;53.502;10.030;2023-09-19T01:45:31;100509.34;;;17.06
77728;BMP280;68312;53.502;10.030;2023-09-19T01:48:25;100514.22;;;17.00
77728;BMP280;68312;53.502;10.030;2023-09-19T01:51:07;100525.91;;;16.96
77728;BMP280;68312;53.502;10.030;2023-09-19T01:56:37;100524.44;;;16.98
77728;BMP280;68312;53.502;10.030;2023-09-19T01:59:13;100525.13;;;16.92
77728;BMP280;68312;53.502;10.030;2023-09-19T02:01:42;100523.72;;;17.01
77728;BMP280;68312;53.502;10.030;2023-09-19T02:04:10;100532.09;;;17.03
77728;BMP280;68312;53.502;10.030;2023-09-19T02:06:42;100540.75;;;17.00
77728;BMP280;68312;53.502;10.030;2023-09-19T02:09:07;100535.06;;;16.98
77728;BMP280;68312;53.502;10.030;2023-09-19T02:11:34;100538.09;;;17.00
77728;BMP280;68312;53.502;10.030;2023-09-19T02:13:59;100544.91;;;16.94
77728;BMP280;68312;53.502;10.030;2023-09-19T02:16:25;100538.75;;;16.90
77728;BMP280;68312;53.502;10.030;2023-09-19T02:18:50;100540.56;;;16.83
77728;BMP280;68312;53.502;10.030;2023-09-19T02:21:17;100542.00;;;16.77
77728;BMP280;68312;53.502;10.030;2023-09-19T02:23:46;100561.31;;;16.74
77728;BMP280;68312;53.502;10.030;2023-09-19T02:26:12;100552.88;;;16.65
77728;BMP280;68312;53.502;10.030;2023-09-19T02:28:39;100547.91;;;16.64
77728;BMP280;68312;53.502;10.030;2023-09-19T02:31:04;100552.78;;;16.59
77728;BMP280;68312;53.502;10.030;2023-09-19T02:33:32;100557.31;;;16.58
77728;BMP280;68312;53.502;10.030;2023-09-19T02:35:58;100562.59;;;16.55
77728;BMP280;68312;53.502;10.030;2023-09-19T02:38:25;100556.81;;;16.49
77728;BMP280;68312;53.502;10.030;2023-09-19T02:40:52;100551.09;;;16.47
77728;BMP280;68312;53.502;10.030;2023-09-19T02:43:18;100550.00;;;16.48
77728;BMP280;68312;53.502;10.030;2023-09-19T02:45:45;100554.50;;;16.44
77728;BMP280;68312;53.502;10.030;2023-09-19T02:48:11;100557.91;;;16.45
77728;BMP280;68312;53.502;10.030;2023-09-19T02:50:37;100566.19;;;16.40
77728;BMP280;68312;53.502;10.030;2023-09-19T02:53:03;100560.91;;;16.43
77728;BMP280;68312;53.502;10.030;2023-09-19T02:55:29;100560.91;;;16.43
77728;BMP280;68312;53.502;10.030;2023-09-19T02:57:55;100560.06;;;16.36
77728;BMP280;68312;53.502;10.030;2023-09-19T03:00:21;100557.31;;;16.33
77728;BMP280;68312;53.502;10.030;2023-09-19T03:05:19;100550.25;;;16.40
77728;BMP280;68312;53.502;10.030;2023-09-19T03:07:46;100573.75;;;16.41
77728;BMP280;68312;53.502;10.030;2023-09-19T03:10:16;100560.09;;;16.39
77728;BMP280;68312;53.502;10.030;2023-09-19T03:12:42;100574.47;;;16.38
77728;BMP280;68312;53.502;10.030;2023-09-19T03:15:08;100582.41;;;16.38
77728;BMP280;68312;53.502;10.030;2023-09-19T03:17:34;100577.84;;;16.35
77728;BMP280;68312;53.502;10.030;2023-09-19T03:20:01;100580.44;;;16.32
77728;BMP280;68312;53.502;10.030;2023-09-19T03:22:27;100579.00;;;16.38
77728;BMP280;68312;53.502;10.030;2023-09-19T03:24:53;100579.81;;;16.42
77728;BMP280;68312;53.502;10.030;2023-09-19T03:27:19;100577.13;;;16.38
77728;BMP280;68312;53.502;10.030;2023-09-19T03:29:46;100582.75;;;16.37
77728;BMP280;68312;53.502;10.030;2023-09-19T03:32:11;100578.97;;;16.34
77728;BMP280;68312;53.502;10.030;2023-09-19T03:34:37;100581.16;;;16.29
77728;BMP280;68312;53.502;10.030;2023-09-19T03:37:07;100579.56;;;16.25
77728;BMP280;68312;53.502;10.030;2023-09-19T03:39:32;100583.66;;;16.19
77728;BMP280;68312;53.502;10.030;2023-09-19T03:41:58;100580.19;;;16.15
77728;BMP280;68312;53.502;10.030;2023-09-19T03:44:23;100573.34;;;16.14
77728;BMP280;68312;53.502;10.030;2023-09-19T03:46:49;100597.19;;;16.14
77728;BMP280;68312;53.502;10.030;2023-09-19T03:49:14;100594.47;;;16.07
77728;BMP280;68312;53.502;10.030;2023-09-19T03:51:39;100605.41;;;16.06
77728;BMP280;68312;53.502;10.030;2023-09-19T03:54:07;100605.34;;;16.02
77728;BMP280;68312;53.502;10.030;2023-09-19T03:56:33;100604.50;;;15.98
77728;BMP280;68312;53.502;10.030;2023-09-19T03:58:58;100608.03;;;16.06
77728;BMP280;68312;53.502;10.030;2023-09-19T04:01:24;100603.28;;;15.92
77728;BMP280;68312;53.502;10.030;2023-09-19T04:03:49;100618.84;;;15.97
77728;BMP280;68312;53.502;10.030;2023-09-19T04:06:16;100618.66;;;15.83
77728;BMP280;68312;53.502;10.030;2023-09-19T04:08:43;100637.75;;;15.74
77728;BMP280;68312;53.502;10.030;2023-09-19T04:11:09;100627.81;;;15.67
77728;BMP280;68312;53.502;10.030;2023-09-19T04:13:36;100641.25;;;15.55
77728;BMP280;68312;53.502;10.030;2023-09-19T04:16:02;100615.38;;;15.49
77728;BMP280;68312;53.502;10.030;2023-09-19T04:18:32;100632.03;;;15.50
77728;BMP280;68312;53.502;10.030;2023-09-19T04:21:02;100634.19;;;15.44
77728;BMP280;68312;53.502;10.030;2023-09-19T04:23:29;100639.34;;;15.37
77728;BMP280;68312;53.502;10.030;2023-09-19T04:25:54;100648.53;;;15.24
77728;BMP280;68312;53.502;10.030;2023-09-19T04:28:20;100649.81;;;15.30
77728;BMP280;68312;53.502;10.030;2023-09-19T04:30:45;100665.41;;;15.17
77728;BMP280;68312;53.502;10.030;2023-09-19T04:33:11;100663.66;;;15.05
77728;BMP280;68312;53.502;10.030;2023-09-19T04:35:39;100663.56;;;15.02
77728;BMP280;68312;53.502;10.030;2023-09-19T04:38:07;100662.28;;;15.11
77728;BMP280;68312;53.502;10.030;2023-09-19T04:40:33;100664.41;;;15.06
77728;BMP280;68312;53.502;10.030;2023-09-19T04:42:59;100671.91;;;15.04
77728;BMP280;68312;53.502;10.030;2023-09-19T04:45:26;100680.81;;;14.96
77728;BMP280;68312;53.502;10.030;2023-09-19T04:47:53;100691.69;;;14.91
77728;BMP280;68312;53.502;10.030;2023-09-19T04:50:19;100682.19;;;14.90
77728;BMP280;68312;53.502;10.030;2023-09-19T04:52:49;100689.19;;;14.83
77728;BMP280;68312;53.502;10.030;2023-09-19T04:55:16;100684.03;;;14.86
77728;BMP280;68312;53.502;10.030;2023-09-19T04:57:44;100682.78;;;14.84
77728;BMP280;68312;53.502;10.030;2023-09-19T05:00:14;100690.28;;;14.82
77728;BMP280;68312;53.502;10.030;2023-09-19T05:02:44;100680.66;;;14.89
77728;BMP280;68312;53.502;10.030;2023-09-19T05:05:10;100695.41;;;14.90
77728;BMP280;68312;53.502;10.030;2023-09-19T05:07:36;100687.66;;;14.82
77728;BMP280;68312;53.502;10.030;2023-09-19T05:10:03;100677.03;;;14.78
77728;BMP280;68312;53.502;10.030;2023-09-19T05:12:34;100684.19;;;14.78
77728;BMP280;68312;53.502;10.030;2023-09-19T05:15:03;100687.50;;;14.75
77728;BMP280;68312;53.502;10.030;2023-09-19T05:17:30;100698.34;;;14.85
77728;BMP280;68312;53.502;10.030;2023-09-19T05:19:56;100706.94;;;14.82
77728;BMP280;68312;53.502;10.030;2023-09-19T05:22:22;100698.44;;;14.73
77728;BMP280;68312;53.502;10.030;2023-09-19T05:24:49;100705.94;;;14.71
77728;BMP280;68312;53.502;10.030;2023-09-19T05:27:16;100705.75;;;14.65
77728;BMP280;68312;53.502;10.030;2023-09-19T05:29:45;100722.75;;;14.64
77728;BMP280;68312;53.502;10.030;2023-09-19T05:32:11;100727.94;;;14.60
77728;BMP280;68312;53.502;10.030;2023-09-19T05:34:37;100722.91;;;14.55
77728;BMP280;68312;53.502;10.030;2023-09-19T05:37:22;100713.09;;;14.56
77728;BMP280;68312;53.502;10.030;2023-09-19T05:39:51;100711.50;;;14.51
77728;BMP280;68312;53.502;10.030;2023-09-19T05:42:18;100711.38;;;14.48
77728;BMP280;68312;53.502;10.030;2023-09-19T05:44:43;100710.38;;;14.52
77728;BMP280;68312;53.502;10.030;2023-09-19T05:47:08;100711.59;;;14.55
77728;BMP280;68312;53.502;10.030;2023-09-19T05:49:35;100716.78;;;14.51
77728;BMP280;68312;53.502;10.030;2023-09-19T05:52:05;100715.31;;;14.54
77728;BMP280;68312;53.502;10.030;2023-09-19T05:54:31;100720.59;;;14.54
77728;BMP280;68312;53.502;10.030;2023-09-19T05:56:59;100731.69;;;14.59
77728;BMP280;68312;53.502;10.030;2023-09-19T05:59:26;100728.53;;;14.69
77728;BMP280;68312;53.502;10.030;2023-09-19T06:01:52;100725.53;;;14.86
77728;BMP280;68312;53.502;10.030;2023-09-19T06:04:18;100728.22;;;15.04
77728;BMP280;68312;53.502;10.030;2023-09-19T06:06:44;100734.19;;;15.17
77728;BMP280;68312;53.502;10.030;2023-09-19T06:09:10;100724.59;;;15.27
77728;BMP280;68312;53.502;10.030;2023-09-19T06:11:35;100725.97;;;15.40
77728;BMP280;68312;53.502;10.030;2023-09-19T06:14:02;100723.66;;;15.54
77728;BMP280;68312;53.502;10.030;2023-09-19T06:16:29;100725.66;;;15.60
77728;BMP280;68312;53.502;10.030;2023-09-19T06:18:56;100727.66;;;15.67
77728;BMP280;68312;53.502;10.030;2023-09-19T06:21:22;100724.72;;;15.72
77728;BMP280;68312;53.502;10.030;2023-09-19T06:23:48;100743.41;;;15.78
77728;BMP280;68312;53.502;10.030;2023-09-19T06:26:14;100728.00;;;15.84
77728;BMP280;68312;53.502;10.030;2023-09-19T06:28:40;100722.09;;;15.90
77728;BMP280;68312;53.502;10.030;2023-09-19T06:31:06;100737.22;;;15.90
77728;BMP280;68312;53.502;10.030;2023-09-19T06:33:35;100750.16;;;15.95
77728;BMP280;68312;53.502;10.030;2023-09-19T06:36:04;100748.69;;;15.97
77728;BMP280;68312;53.502;10.030;2023-09-19T06:38:30;100751.91;;;15.87
77728;BMP280;68312;53.502;10.030;2023-09-19T06:40:58;100749.16;;;16.03
77728;BMP280;68312;53.502;10.030;2023-09-19T06:43:24;100735.41;;;16.16
77728;BMP280;68312;53.502;10.030;2023-09-19T06:45:49;100743.97;;;16.06
77728;BMP280;68312;53.502;10.030;2023-09-19T06:48:17;100743.00;;;16.17
77728;BMP280;68312;53.502;10.030;2023-09-19T06:50:43;100739.66;;;16.20
77728;BMP280;68312;53.502;10.030;2023-09-19T06:53:09;100753.78;;;16.28
77728;BMP280;68312;53.502;10.030;2023-09-19T06:55:35;100745.75;;;16.21
77728;BMP280;68312;53.502;10.030;2023-09-19T06:58:02;100744.19;;;16.20
77728;BMP280;68312;53.502;10.030;2023-09-19T07:00:27;100734.34;;;16.20
77728;BMP280;68312;53.502;10.030;2023-09-19T07:03:01;100744.91;;;16.17
77728;BMP280;68312;53.502;10.030;2023-09-19T07:05:34;100752.00;;;16.32
77728;BMP280;68312;53.502;10.030;2023-09-19T07:08:03;100760.53;;;16.44
77728;BMP280;68312;53.502;10.030;2023-09-19T07:10:29;100750.97;;;16.39
77728;BMP280;68312;53.502;10.030;2023-09-19T07:12:56;100764.69;;;16.45
77728;BMP280;68312;53.502;10.030;2023-09-19T07:15:29;100779.88;;;16.48
77728;BMP280;68312;53.502;10.030;2023-09-19T07:17:58;100781.38;;;16.45
77728;BMP280;68312;53.502;10.030;2023-09-19T07:20:25;100779.84;;;16.44
77728;BMP280;68312;53.502;10.030;2023-09-19T07:22:52;100776.47;;;16.47
77728;BMP280;68312;53.502;10.030;2023-09-19T07:25:20;100791.28;;;16.48
77728;BMP280;68312;53.502;10.030;2023-09-19T07:27:46;100804.22;;;16.53
77728;BMP280;68312;53.502;10.030;2023-09-19T07:30:11;100796.28;;;16.53
77728;BMP280;68312;53.502;10.030;2023-09-19T07:32:38;100786.28;;;16.65
77728;BMP280;68312;53.502;10.030;2023-09-19T07:35:04;100781.06;;;16.72
77728;BMP280;68312;53.502;10.030;2023-09-19T07:37:33;100792.16;;;16.78
77728;BMP280;68312;53.502;10.030;2023-09-19T07:40:00;100793.63;;;16.75
77728;BMP280;68312;53.502;10.030;2023-09-19T07:42:26;100797.88;;;16.80
77728;BMP280;68312;53.502;10.030;2023-09-19T07:44:52;100793.41;;;16.87
77728;BMP280;68312;53.502;10.030;2023-09-19T07:47:19;100802.81;;;16.59
77728;BMP280;68312;53.502;10.030;2023-09-19T07:49:49;100809.53;;;16.53
77728;BMP280;68312;53.502;10.030;2023-09-19T07:52:15;100798.88;;;16.50
77728;BMP280;68312;53.502;10.030;2023-09-19T07:54:41;100795.44;;;16.49
77728;BMP280;68312;53.502;10.030;2023-09-19T07:57:09;100808.19;;;16.40
77728;BMP280;68312;53.502;10.030;2023-09-19T07:59:36;100813.06;;;16.38
77728;BMP280;68312;53.502;10.030;2023-09-19T08:02:04;100808.53;;;16.39
77728;BMP280;68312;53.502;10.030;2023-09-19T08:04:30;100814.88;;;16.34
77728;BMP280;68312;53.502;10.030;2023-09-19T08:06:57;100791.25;;;16.26
77728;BMP280;68312;53.502;10.030;2023-09-19T08:09:25;100812.53;;;16.30
77728;BMP280;68312;53.502;10.030;2023-09-19T08:11:51;100816.16;;;16.40
77728;BMP280;68312;53.502;10.030;2023-09-19T08:14:16;100823.84;;;16.49
77728;BMP280;68312;53.502;10.030;2023-09-19T08:16:42;100824.56;;;16.46
77728;BMP280;68312;53.502;10.030;2023-09-19T08:19:09;100820.97;;;16.57
77728;BMP280;68312;53.502;10.030;2023-09-19T08:21:35;100821.09;;;16.64
77728;BMP280;68312;53.502;10.030;2023-09-19T08:24:01;100815.22;;;16.77
77728;BMP280;68312;53.502;10.030;2023-09-19T08:26:30;100819.78;;;16.77
77728;BMP280;68312;53.502;10.030;2023-09-19T08:28:56;100825.06;;;16.73
77728;BMP280;68312;53.502;10.030;2023-09-19T08:31:22;100813.63;;;16.69
77728;BMP280;68312;53.502;10.030;2023-09-19T08:33:49;100814.91;;;16.79
77728;BMP280;68312;53.502;10.030;2023-09-19T08:36:17;100828.16;;;16.79
77728;BMP280;68312;53.502;10.030;2023-09-19T08:38:42;100823.09;;;16.70
77728;BMP280;68312;53.502;10.030;2023-09-19T08:41:08;100822.91;;;16.82
77728;BMP280;68312;53.502;10.030;2023-09-19T08:43:34;100821.06;;;16.86
77728;BMP280;68312;53.502;10.030;2023-09-19T08:46:18;100812.00;;;17.13
77728;BMP280;68312;53.502;10.030;2023-09-19T08:49:19;100826.56;;;17.22
77728;BMP280;68312;53.502;10.030;2023-09-19T08:52:32;100821.59;;;17.20
77728;BMP280;68312;53.502;10.030;2023-09-19T08:55:07;100821.66;;;17.24
77728;BMP280;68312;53.502;10.030;2023-09-19T08:57:36;100813.06;;;17.34
77728;BMP280;68312;53.502;10.030;2023-09-19T09:00:07;100815.28;;;17.28
77728;BMP280;68312;53.502;10.030;2023-09-19T09:02:40;100814.78;;;17.48
77728;BMP280;68312;53.502;10.030;2023-09-19T09:05:09;100822.53;;;17.60
77728;BMP280;68312;53.502;10.030;2023-09-19T09:07:37;100811.34;;;17.48
77728;BMP280;68312;53.502;10.030;2023-09-19T09:10:03;100814.22;;;17.36
77728;BMP280;68312;53.502;10.030;2023-09-19T09:12:29;100833.34;;;17.45
77728;BMP280;68312;53.502;10.030;2023-09-19T09:14:55;100820.06;;;17.45
77728;BMP280;68312;53.502;10.030;2023-09-19T09:17:25;100825.75;;;17.76
77728;BMP280;68312;53.502;10.030;2023-09-19T09:19:54;100831.88;;;17.80
77728;BMP280;68312;53.502;10.030;2023-09-19T09:22:19;100830.38;;;17.82
77728;BMP280;68312;53.502;10.030;2023-09-19T09:24:59;100829.22;;;18.12
77728;BMP280;68312;53.502;10.030;2023-09-19T09:27:29;100833.69;;;18.05
77728;BMP280;68312;53.502;10.030;2023-09-19T09:29:54;100834.63;;;18.58
77728;BMP280;68312;53.502;10.030;2023-09-19T09:32:22;100823.19;;;18.54
77728;BMP280;68312;53.502;10.030;2023-09-19T09:34:54;100835.53;;;18.79
77728;BMP280;68312;53.502;10.030;2023-09-19T09:37:24;100826.75;;;19.35
77728;BMP280;68312;53.502;10.030;2023-09-19T09:39:58;100829.78;;;19.30
77728;BMP280;68312;53.502;10.030;2023-09-19T09:42:45;100832.94;;;19.56
77728;BMP280;68312;53.502;10.030;2023-09-19T09:45:21;100829.59;;;19.80
77728;BMP280;68312;53.502;10.030;2023-09-19T09:48:01;100828.94;;;20.48
77728;BMP280;68312;53.502;10.030;2023-09-19T09:50:46;100828.53;;;20.36
77728;BMP280;68312;53.502;10.030;2023-09-19T09:53:26;100821.22;;;21.02
77728;BMP280;68312;53.502;10.030;2023-09-19T09:56:02;100821.25;;;20.91
77728;BMP280;68312;53.502;10.030;2023-09-19T09:58:31;100827.00;;;20.79
77728;BMP280;68312;53.502;10.030;2023-09-19T10:01:04;100825.09;;;19.98
77728;BMP280;68312;53.502;10.030;2023-09-19T10:03:41;100816.25;;;19.73
77728;BMP280;68312;53.502;10.030;2023-09-19T10:06:16;100823.84;;;19.78
77728;BMP280;68312;53.502;10.030;2023-09-19T10:11:45;100819.78;;;20.32
77728;BMP280;68312;53.502;10.030;2023-09-19T10:14:29;100820.91;;;20.79
77728;BMP280;68312;53.502;10.030;2023-09-19T10:16:57;100819.03;;;20.73
77728;BMP280;68312;53.502;10.030;2023-09-19T10:19:50;100818.97;;;20.86
77728;BMP280;68312;53.502;10.030;2023-09-19T10:22:23;100829.25;;;19.95
77728;BMP280;68312;53.502;10.030;2023-09-19T10:24:53;100834.41;;;19.50
77728;BMP280;68312;53.502;10.030;2023-09-19T10:27:21;100846.09;;;19.25
77728;BMP280;68312;53.502;10.030;2023-09-19T10:29:49;100828.59;;;19.28
77728;BMP280;68312;53.502;10.030;2023-09-19T10:32:21;100836.06;;;19.02
77728;BMP280;68312;53.502;10.030;2023-09-19T10:34:48;100827.69;;;19.77
77728;BMP280;68312;53.502;10.030;2023-09-19T10:37:20;100826.66;;;20.29
77728;BMP280;68312;53.502;10.030;2023-09-19T10:39:51;100818.22;;;20.00
77728;BMP280;68312;53.502;10.030;2023-09-19T10:42:19;100815.00;;;19.57
77728;BMP280;68312;53.502;10.030;2023-09-19T10:44:47;100821.22;;;19.04
77728;BMP280;68312;53.502;10.030;2023-09-19T10:47:19;100832.69;;;19.12
77728;BMP280;68312;53.502;10.030;2023-09-19T10:49:46;100829.53;;;18.93
77728;BMP280;68312;53.502;10.030;2023-09-19T10:52:19;100831.78;;;18.91
77728;BMP280;68312;53.502;10.030;2023-09-19T10:54:51;100840.31;;;19.10
77728;BMP280;68312;53.502;10.030;2023-09-19T10:57:23;100830.47;;;19.17
77728;BMP280;68312;53.502;10.030;2023-09-19T11:00:07;100807.25;;;19.21
77728;BMP280;68312;53.502;10.030;2023-09-19T11:03:28;100830.13;;;18.69
77728;BMP280;68312;53.502;10.030;2023-09-19T11:06:06;100822.22;;;18.83
77728;BMP280;68312;53.502;10.030;2023-09-19T11:30:31;100800.97;;;19.63
77728;BMP280;68312;53.502;10.030;2023-09-19T11:33:26;100823.56;;;19.93
77728;BMP280;68312;53.502;10.030;2023-09-19T11:36:08;100833.84;;;20.05
77728;BMP280;68312;53.502;10.030;2023-09-19T11:43:50;100816.50;;;19.41
77728;BMP280;68312;53.502;10.030;2023-09-19T11:46:24;100830.22;;;18.83
77728;BMP280;68312;53.502;10.030;2023-09-19T11:48:50;100837.88;;;18.91
77728;BMP280;68312;53.502;10.030;2023-09-19T11:51:19;100830.69;;;18.95
77728;BMP280;68312;53.502;10.030;2023-09-19T11:53:50;100842.22;;;19.16
77728;BMP280;68312;53.502;10.030;2023-09-19T11:56:19;100832.09;;;19.39
77728;BMP280;68312;53.502;10.030;2023-09-19T11:58:54;100824.25;;;19.80
77728;BMP280;68312;53.502;10.030;2023-09-19T12:01:24;100817.81;;;19.88
77728;BMP280;68312;53.502;10.030;2023-09-19T12:04:01;100812.81;;;18.92
77728;BMP280;68312;53.502;10.030;2023-09-19T12:06:30;100826.91;;;18.99
77728;BMP280;68312;53.502;10.030;2023-09-19T12:08:57;100818.25;;;19.09
77728;BMP280;68312;53.502;10.030;2023-09-19T12:11:30;100813.38;;;19.22
77728;BMP280;68312;53.502;10.030;2023-09-19T12:14:01;100821.91;;;19.58
77728;BMP280;68312;53.502;10.030;2023-09-19T12:16:27;100807.50;;;19.79
77728;BMP280;68312;53.502;10.030;2023-09-19T12:18:56;100815.50;;;19.76
77728;BMP280;68312;53.502;10.030;2023-09-19T12:21:24;100821.88;;;19.54
77728;BMP280;68312;53.502;10.030;2023-09-19T12:23:58;100825.41;;;19.86
77728;BMP280;68312;53.502;10.030;2023-09-19T12:26:44;100826.66;;;20.57
77728;BMP280;68312;53.502;10.030;2023-09-19T12:31:55;100815.97;;;20.53
77728;BMP280;68312;53.502;10.030;2023-09-19T12:34:30;100816.72;;;20.23
77728;BMP280;68312;53.502;10.030;2023-09-19T12:37:15;100809.88;;;20.26
77728;BMP280;68312;53.502;10.030;2023-09-19T12:39:49;100808.72;;;20.37
77728;BMP280;68312;53.502;10.030;2023-09-19T12:42:19;100793.81;;;20.87
77728;BMP280;68312;53.502;10.030;2023-09-19T12:44:50;100815.19;;;20.77
77728;BMP280;68312;53.502;10.030;2023-09-19T12:47:25;100809.47;;;20.34
77728;BMP280;68312;53.502;10.030;2023-09-19T12:50:06;100807.50;;;19.86
77728;BMP280;68312;53.502;10.030;2023-09-19T12:52:51;100811.28;;;19.82
77728;BMP280;68312;53.502;10.030;2023-09-19T12:55:28;100805.28;;;20.57
77728;BMP280;68312;53.502;10.030;2023-09-19T12:58:08;100800.66;;;20.92
77728;BMP280;68312;53.502;10.030;2023-09-19T13:00:43;100799.16;;;20.74
77728;BMP280;68312;53.502;10.030;2023-09-19T13:03:26;100801.44;;;20.68
77728;BMP280;68312;53.502;10.030;2023-09-19T13:06:02;100796.19;;;21.56
77728;BMP280;68312;53.502;10.030;2023-09-19T13:08:37;100780.81;;;22.20
77728;BMP280;68312;53.502;10.030;2023-09-19T13:11:06;100779.63;;;21.78
77728;BMP280;68312;53.502;10.030;2023-09-19T13:13:47;100776.34;;;21.50
77728;BMP280;68312;53.502;10.030;2023-09-19T13:16:19;100773.75;;;21.36
77728;BMP280;68312;53.502;10.030;2023-09-19T13:18:51;100782.25;;;21.85
77728;BMP280;68312;53.502;10.030;2023-09-19T13:21:35;100767.19;;;22.08
77728;BMP280;68312;53.502;10.030;2023-09-19T13:27:33;100766.13;;;21.92
77728;BMP280;68312;53.502;10.030;2023-09-19T13:29:59;100774.00;;;22.56
77728;BMP280;68312;53.502;10.030;2023-09-19T13:32:25;100772.53;;;22.84
77728;BMP280;68312;53.502;10.030;2023-09-19T13:34:51;100752.66;;;22.49
77728;BMP280;68312;53.502;10.030;2023-09-19T13:37:16;100750.97;;;22.94
77728;BMP280;68312;53.502;10.030;2023-09-19T13:39:45;100743.06;;;21.61
77728;BMP280;68312;53.502;10.030;2023-09-19T13:42:13;100759.78;;;21.69
77728;BMP280;68312;53.502;10.030;2023-09-19T13:44:39;100749.47;;;22.93
77728;BMP280;68312;53.502;10.030;2023-09-19T13:47:06;100756.44;;;22.87
77728;BMP280;68312;53.502;10.030;2023-09-19T13:49:36;100741.84;;;22.92
77728;BMP280;68312;53.502;10.030;2023-09-19T13:52:03;100753.78;;;23.13
77728;BMP280;68312;53.502;10.030;2023-09-19T13:54:31;100742.25;;;24.13
77728;BMP280;68312;53.502;10.030;2023-09-19T13:56:56;100733.56;;;23.35
77728;BMP280;68312;53.502;10.030;2023-09-19T13:59:21;100721.16;;;23.18
77728;BMP280;68312;53.502;10.030;2023-09-19T14:01:49;100731.63;;;23.09
77728;BMP280;68312;53.502;10.030;2023-09-19T14:04:15;100742.88;;;22.68
77728;BMP280;68312;53.502;10.030;2023-09-19T14:06:42;100723.91;;;22.85
77728;BMP280;68312;53.502;10.030;2023-09-19T14:09:08;100725.06;;;22.84
77728;BMP280;68312;53.502;10.030;2023-09-19T14:11:35;100731.09;;;22.26
77728;BMP280;68312;53.502;10.030;2023-09-19T14:14:00;100732.22;;;21.22
77728;BMP280;68312;53.502;10.030;2023-09-19T14:16:26;100715.91;;;21.66
77728;BMP280;68312;53.502;10.030;2023-09-19T14:18:55;100723.81;;;21.80
77728;BMP280;68312;53.502;10.030;2023-09-19T14:21:20;100732.56;;;22.31
77728;BMP280;68312;53.502;10.030;2023-09-19T14:23:46;100716.13;;;21.85
77728;BMP280;68312;53.502;10.030;2023-09-19T14:26:11;100730.53;;;22.05
77728;BMP280;68312;53.502;10.030;2023-09-19T14:28:37;100719.00;;;21.58
77728;BMP280;68312;53.502;10.030;2023-09-19T14:31:08;100714.16;;;21.39
77728;BMP280;68312;53.502;10.030;2023-09-19T14:33:34;100723.47;;;21.14
77728;BMP280;68312;53.502;10.030;2023-09-19T14:36:04;100728.97;;;20.77
77728;BMP280;68312;53.502;10.030;2023-09-19T14:38:36;100722.47;;;20.88
77728;BMP280;68312;53.502;10.030;2023-09-19T14:41:03;100734.75;;;21.46
77728;BMP280;68312;53.502;10.030;2023-09-19T14:43:30;100724.97;;;21.26
77728;BMP280;68312;53.502;10.030;2023-09-19T14:46:02;100707.13;;;21.02
77728;BMP280;68312;53.502;10.030;2023-09-19T14:48:28;100706.09;;;20.72